createdAt,value
2022-10-25T00:01:54.907Z,91.50
2022-10-25T00:05:19.349Z,92.00
2022-10-25T00:08:47.176Z,92.10
2022-10-25T00:12:10.763Z,92.00
2022-10-25T00:15:35.724Z,91.90
2022-10-25T00:18:59.205Z,91.80
2022-10-25T00:22:22.656Z,91.90
2022-10-25T00:25:46.119Z,91.90
2022-10-25T00:29:11.523Z,91.80
2022-10-25T00:32:37.007Z,91.80
2022-10-25T00:36:06.476Z,92.00
2022-10-25T00:39:30.016Z,91.30
2022-10-25T00:42:53.420Z,91.30
2022-10-25T00:46:25.618Z,91.20
2022-10-25T00:50:00.955Z,90.80
2022-10-25T00:53:32.374Z,90.70
2022-10-25T00:57:00.679Z,90.50
2022-10-25T01:00:24.168Z,90.60
2022-10-25T01:03:52.155Z,90.60
2022-10-25T01:07:17.072Z,90.70
2022-10-25T01:10:41.140Z,90.90
2022-10-25T01:14:05.640Z,91.20
2022-10-25T01:17:43.492Z,91.40
2022-10-25T01:21:39.862Z,91.50
2022-10-25T01:25:45.139Z,91.30
2022-10-25T01:29:49.019Z,91.40
2022-10-25T01:33:23.677Z,91.40
2022-10-25T01:36:59.238Z,91.80
2022-10-25T01:40:31.067Z,91.80
2022-10-25T01:44:10.708Z,91.60
2022-10-25T01:47:42.708Z,91.40
2022-10-25T01:51:13.511Z,91.30
2022-10-25T01:54:37.230Z,91.20
2022-10-25T01:58:14.908Z,91.20
2022-10-25T02:01:58.923Z,91.00
2022-10-25T02:05:30.417Z,90.50
2022-10-25T02:09:06.944Z,90.20
2022-10-25T02:12:37.819Z,90.00
2022-10-25T02:16:07.943Z,89.80
2022-10-25T02:19:36.623Z,89.50
2022-10-25T02:23:04.176Z,89.20
2022-10-25T02:26:29.455Z,89.10
2022-10-25T02:29:54.972Z,88.90
2022-10-25T02:33:18.619Z,89.10
2022-10-25T02:36:42.066Z,89.40
2022-10-25T02:40:06.559Z,89.50
2022-10-25T02:43:31.353Z,89.70
2022-10-25T02:46:54.927Z,90.00
2022-10-25T02:50:18.578Z,90.10
2022-10-25T02:53:42.119Z,90.30
2022-10-25T02:57:05.628Z,90.50
2022-10-25T03:00:30.496Z,90.40
2022-10-25T03:03:54.006Z,90.30
2022-10-25T03:07:17.405Z,90.30
2022-10-25T03:10:40.908Z,90.40
2022-10-25T03:14:04.370Z,90.40
2022-10-25T03:17:29.204Z,90.70
2022-10-25T03:20:52.882Z,91.30
2022-10-25T03:24:16.548Z,91.10
2022-10-25T03:27:39.998Z,91.10
2022-10-25T03:31:03.924Z,91.20
2022-10-25T03:34:28.976Z,91.20
2022-10-25T03:37:54.018Z,91.20
2022-10-25T03:41:17.464Z,91.30
2022-10-25T03:44:40.939Z,91.40
2022-10-25T03:48:04.473Z,91.40
2022-10-25T03:51:29.267Z,91.40
2022-10-25T03:54:52.695Z,91.60
2022-10-25T03:58:16.276Z,91.80
2022-10-25T04:01:39.862Z,91.90
2022-10-25T04:05:03.476Z,92.00
2022-10-25T04:08:28.324Z,91.30
2022-10-25T04:11:51.772Z,92.00
2022-10-25T04:15:16.288Z,92.10
2022-10-25T04:18:39.736Z,92.10
2022-10-25T04:22:03.180Z,92.00
2022-10-25T04:25:30.372Z,91.90
2022-10-25T04:28:56.459Z,91.70
2022-10-25T04:35:56.361Z,91.30
2022-10-25T04:39:19.876Z,91.10
2022-10-25T04:42:44.913Z,90.90
2022-10-25T04:46:08.670Z,90.70
2022-10-25T04:49:32.108Z,90.60
2022-10-25T04:52:55.757Z,90.50
2022-10-25T04:56:19.157Z,90.50
2022-10-25T04:59:44.285Z,90.50
2022-10-25T05:03:10.895Z,90.70
2022-10-25T05:06:37.115Z,91.10
2022-10-25T05:10:00.567Z,91.40
2022-10-25T05:13:23.999Z,91.60
2022-10-25T05:16:48.788Z,91.50
2022-10-25T05:20:12.452Z,91.30
2022-10-25T05:23:36.397Z,90.80
2022-10-25T05:26:59.820Z,90.30
2022-10-25T05:30:23.444Z,89.90
2022-10-25T05:33:51.493Z,89.50
2022-10-25T05:37:14.973Z,89.10
2022-10-25T05:40:38.821Z,89.10
2022-10-25T05:44:02.262Z,89.80
2022-10-25T05:47:25.712Z,89.20
2022-10-25T05:50:53.497Z,89.30
2022-10-25T05:54:23.434Z,89.20
2022-10-25T05:57:52.511Z,89.20
2022-10-25T06:01:19.181Z,89.20
2022-10-25T06:04:42.718Z,89.40
2022-10-25T06:08:07.775Z,89.40
2022-10-25T06:11:31.712Z,89.60
2022-10-25T06:14:55.628Z,90.30
2022-10-25T06:18:19.211Z,90.70
2022-10-25T06:21:42.667Z,91.50
2022-10-25T06:25:09.317Z,92.30
2022-10-25T06:28:34.152Z,92.80
2022-10-25T06:31:57.657Z,93.10
2022-10-25T06:35:21.292Z,93.10
2022-10-25T06:38:45.787Z,93.10
2022-10-25T06:42:10.560Z,93.00
2022-10-25T06:45:34.525Z,92.80
2022-10-25T06:48:59.809Z,92.60
2022-10-25T06:52:23.432Z,92.30
2022-10-25T06:55:49.445Z,92.20
2022-10-25T06:59:14.384Z,92.10
2022-10-25T07:02:37.804Z,91.90
2022-10-25T07:06:02.199Z,91.90
2022-10-25T07:09:26.993Z,92.00
2022-10-25T07:12:50.403Z,92.40
2022-10-25T07:16:19.057Z,92.40
2022-10-25T07:19:42.491Z,92.70
2022-10-25T07:23:08.783Z,93.10
2022-10-25T07:26:35.460Z,93.30
2022-10-25T07:29:58.861Z,93.30
2022-10-25T07:33:23.651Z,93.20
2022-10-25T07:36:47.131Z,93.00
2022-10-25T07:40:11.849Z,93.10
2022-10-25T07:43:35.773Z,93.00
2022-10-25T07:46:59.233Z,93.00
2022-10-25T07:50:24.085Z,93.00
2022-10-25T07:53:47.842Z,93.00
2022-10-25T07:57:11.792Z,93.40
2022-10-25T08:00:37.357Z,94.30
2022-10-25T08:04:00.793Z,99.20
2022-10-25T08:07:25.750Z,99.90
2022-10-25T08:10:49.290Z,99.90
2022-10-25T08:14:12.867Z,99.90
2022-10-25T08:17:36.357Z,99.90
2022-10-25T08:21:03.620Z,99.90
2022-10-25T08:24:28.922Z,97.90
2022-10-25T08:27:52.525Z,97.30
2022-10-25T08:31:16.008Z,97.10
2022-10-25T08:34:39.465Z,95.90
2022-10-25T08:38:05.753Z,95.00
2022-10-25T08:41:45.532Z,93.40
2022-10-25T08:45:19.961Z,92.10
2022-10-25T08:48:50.055Z,92.00
2022-10-25T08:52:23.115Z,92.30
2022-10-25T08:56:05.171Z,92.80
2022-10-25T08:59:40.788Z,93.70
2022-10-25T09:03:05.999Z,93.50
2022-10-25T09:06:38.052Z,94.10
2022-10-25T09:10:16.686Z,93.90
2022-10-25T09:13:51.880Z,94.20
2022-10-25T09:17:21.236Z,94.30
2022-10-25T09:20:51.701Z,94.60
2022-10-25T09:24:24.654Z,94.40
2022-10-25T09:28:00.458Z,94.80
2022-10-25T09:31:26.273Z,95.30
2022-10-25T09:34:54.344Z,95.60
2022-10-25T09:38:24.544Z,95.40
2022-10-25T09:41:52.667Z,95.40
2022-10-25T09:45:24.184Z,96.40
2022-10-25T09:48:56.427Z,99.90
2022-10-25T09:52:31.071Z,99.90
2022-10-25T09:55:56.634Z,99.90
2022-10-25T09:59:20.292Z,99.90
2022-10-25T10:02:43.961Z,99.90
2022-10-25T10:06:20.994Z,99.90
2022-10-25T10:09:48.089Z,99.90
2022-10-25T10:13:21.148Z,99.90
2022-10-25T10:16:49.113Z,99.90
2022-10-25T10:20:16.289Z,99.90
2022-10-25T10:23:51.420Z,99.90
2022-10-25T10:27:29.790Z,97.70
2022-10-25T10:30:57.884Z,95.20
2022-10-25T10:34:27.515Z,95.90
2022-10-25T10:37:50.952Z,95.60
2022-10-25T10:41:16.816Z,97.40
2022-10-25T10:44:41.723Z,96.80
2022-10-25T10:48:05.850Z,96.60
2022-10-25T10:51:44.638Z,98.00
2022-10-25T10:55:19.525Z,92.20
2022-10-25T10:58:53.466Z,91.70
2022-10-25T11:02:28.755Z,92.10
2022-10-25T11:05:55.397Z,89.70
2022-10-25T11:09:25.504Z,91.40
2022-10-25T11:13:08.327Z,90.60
2022-10-25T11:16:56.707Z,86.00
2022-10-25T11:20:34.321Z,84.20
2022-10-25T11:24:10.885Z,81.40
2022-10-25T11:27:55.409Z,77.00
2022-10-25T11:31:36.528Z,76.00
2022-10-25T11:35:11.058Z,75.40
2022-10-25T11:38:55.141Z,77.10
2022-10-25T11:42:50.035Z,74.20
2022-10-25T11:46:27.079Z,75.30
2022-10-25T11:50:04.357Z,77.30
2022-10-25T11:53:53.042Z,78.90
2022-10-25T11:57:36.549Z,80.30
2022-10-25T12:01:20.672Z,81.80
2022-10-25T12:05:04.335Z,83.40
2022-10-25T12:08:38.416Z,85.10
2022-10-25T12:12:07.529Z,85.40
2022-10-25T12:15:39.816Z,85.10
2022-10-25T12:19:12.257Z,84.30
2022-10-25T12:22:43.219Z,83.60
2022-10-25T12:26:12.138Z,83.60
2022-10-25T12:29:42.854Z,85.90
2022-10-25T12:33:21.843Z,86.80
2022-10-25T12:36:50.263Z,86.00
2022-10-25T12:40:21.416Z,90.40
2022-10-25T12:44:01.925Z,92.00
2022-10-25T12:47:54.904Z,93.20
2022-10-25T12:51:39.266Z,92.30
2022-10-25T12:55:49.024Z,92.80
2022-10-25T12:59:38.354Z,90.10
2022-10-25T13:03:49.450Z,90.80
2022-10-25T13:07:15.428Z,89.00
2022-10-25T13:10:58.655Z,90.90
2022-10-25T13:14:30.761Z,89.90
2022-10-25T13:18:07.767Z,89.90
2022-10-25T13:22:11.702Z,89.70
2022-10-25T13:26:08.144Z,89.10
2022-10-25T13:30:37.716Z,89.30
2022-10-25T13:34:36.566Z,89.40
2022-10-25T13:38:09.431Z,89.50
2022-10-25T13:41:45.540Z,90.70
2022-10-25T13:45:22.705Z,90.30
2022-10-25T13:48:46.416Z,91.20
2022-10-25T13:52:25.536Z,91.10
2022-10-25T13:56:06.052Z,88.70
2022-10-25T14:00:02.945Z,88.10
2022-10-25T14:03:48.423Z,87.10
2022-10-25T14:07:48.448Z,89.70
2022-10-25T14:11:19.641Z,89.00
2022-10-25T14:15:05.497Z,90.70
2022-10-25T14:18:37.669Z,90.30
2022-10-25T14:22:05.211Z,90.50
2022-10-25T14:25:36.660Z,90.40
2022-10-25T14:29:16.244Z,90.30
2022-10-25T14:32:39.859Z,88.60
2022-10-25T14:36:26.141Z,90.80
2022-10-25T14:39:53.840Z,90.10
2022-10-25T14:43:26.856Z,90.90
2022-10-25T14:46:52.359Z,90.80
2022-10-25T14:50:16.829Z,91.40
2022-10-25T14:53:51.124Z,91.70
2022-10-25T14:57:17.468Z,91.60
2022-10-25T15:00:41.391Z,91.40
2022-10-25T15:04:06.296Z,91.80
2022-10-25T15:07:33.889Z,90.80
2022-10-25T15:11:04.258Z,90.40
2022-10-25T15:14:32.100Z,90.20
2022-10-25T15:17:56.560Z,90.00
2022-10-25T15:21:21.433Z,90.10
2022-10-25T15:24:48.680Z,89.30
2022-10-25T15:28:15.249Z,89.10
2022-10-25T15:31:44.840Z,88.70
2022-10-25T15:35:26.386Z,87.80
2022-10-25T15:39:07.134Z,87.10
2022-10-25T15:42:31.662Z,88.30
2022-10-25T15:45:56.384Z,88.20
2022-10-25T15:49:20.565Z,88.10
2022-10-25T15:52:44.598Z,88.40
2022-10-25T15:56:13.203Z,88.40
2022-10-25T15:59:36.665Z,87.90
2022-10-25T16:03:00.654Z,87.90
2022-10-25T16:06:24.593Z,87.60
2022-10-25T16:09:48.192Z,87.30
2022-10-25T16:13:18.537Z,89.50
2022-10-25T16:16:42.834Z,86.90
2022-10-25T16:20:17.843Z,87.10
2022-10-25T16:23:41.354Z,87.00
2022-10-25T16:27:05.134Z,87.40
2022-10-25T16:30:34.701Z,87.30
2022-10-25T16:33:58.362Z,86.80
2022-10-25T16:37:22.202Z,87.50
2022-10-25T16:40:45.699Z,87.60
2022-10-25T16:44:11.646Z,87.70
2022-10-25T16:47:36.854Z,88.00
2022-10-25T16:51:00.194Z,87.80
2022-10-25T16:54:24.335Z,88.20
2022-10-25T17:01:22.358Z,88.00
2022-10-25T17:04:48.578Z,88.00
2022-10-25T17:08:11.983Z,88.50
2022-10-25T17:11:36.047Z,88.90
2022-10-25T17:14:59.431Z,88.70
2022-10-25T17:18:26.686Z,88.70
2022-10-25T17:21:51.653Z,88.80
2022-10-25T17:25:15.747Z,88.40
2022-10-25T17:28:43.176Z,88.10
2022-10-25T17:32:07.922Z,88.40
2022-10-25T17:35:31.359Z,88.40
2022-10-25T17:38:56.315Z,88.40
2022-10-25T17:42:20.223Z,88.20
2022-10-25T17:45:45.268Z,88.50
2022-10-25T17:49:08.732Z,88.50
2022-10-25T17:52:32.172Z,88.60
2022-10-25T17:55:57.127Z,88.70
2022-10-25T17:59:20.555Z,88.80
2022-10-25T18:02:50.371Z,89.00
2022-10-25T18:06:17.937Z,88.90
2022-10-25T18:09:41.921Z,88.40
2022-10-25T18:13:06.691Z,88.70
2022-10-25T18:16:31.331Z,88.30
2022-10-25T18:19:54.925Z,88.20
2022-10-25T18:23:18.346Z,88.60
2022-10-25T18:26:41.855Z,89.00
2022-10-25T18:30:08.549Z,89.00
2022-10-25T18:33:34.670Z,88.90
2022-10-25T18:36:58.167Z,89.00
2022-10-25T18:40:22.659Z,89.20
2022-10-25T18:43:47.728Z,90.20
2022-10-25T18:47:12.498Z,90.80
2022-10-25T18:50:40.409Z,91.60
2022-10-25T18:54:06.628Z,92.50
2022-10-25T18:57:31.287Z,93.00
2022-10-25T19:00:54.746Z,92.90
2022-10-25T19:04:19.705Z,92.80
2022-10-25T19:07:43.151Z,91.90
2022-10-25T19:11:09.482Z,91.20
2022-10-25T19:14:33.032Z,90.40
2022-10-25T19:17:56.610Z,90.20
2022-10-25T19:21:21.777Z,90.00
2022-10-25T19:24:45.526Z,89.50
2022-10-25T19:28:10.333Z,89.40
2022-10-25T19:31:33.819Z,89.60
2022-10-25T19:34:58.141Z,90.00
2022-10-25T19:38:23.156Z,90.10
2022-10-25T19:41:46.553Z,90.10
2022-10-25T19:45:10.733Z,90.30
2022-10-25T19:48:35.101Z,90.20
2022-10-25T19:51:58.617Z,90.30
2022-10-25T19:55:23.455Z,90.00
2022-10-25T19:58:47.465Z,89.90
2022-10-25T20:02:11.219Z,90.00
2022-10-25T20:05:34.801Z,89.80
2022-10-25T20:09:00.198Z,89.60
2022-10-25T20:12:25.269Z,89.40
2022-10-25T20:15:51.246Z,89.10
2022-10-25T20:19:15.330Z,89.00
2022-10-25T20:22:40.164Z,88.80
2022-10-25T20:26:13.161Z,88.70
2022-10-25T20:29:38.137Z,88.40
2022-10-25T20:33:01.759Z,89.20
2022-10-25T20:36:26.270Z,90.30
2022-10-25T20:39:49.734Z,90.10
2022-10-25T20:43:13.228Z,90.40
2022-10-25T20:46:38.437Z,90.50
2022-10-25T20:50:01.932Z,90.50
2022-10-25T20:53:25.558Z,90.80
2022-10-25T20:56:48.995Z,90.70
2022-10-25T21:00:17.054Z,90.60
2022-10-25T21:03:44.933Z,90.70
2022-10-25T21:07:08.494Z,90.40
2022-10-25T21:10:32.688Z,90.50
2022-10-25T21:13:56.317Z,90.60
2022-10-25T21:17:19.945Z,90.50
2022-10-25T21:20:45.114Z,90.50
2022-10-25T21:24:11.430Z,90.20
2022-10-25T21:27:35.306Z,90.10
2022-10-25T21:31:02.828Z,90.20
2022-10-25T21:34:26.300Z,90.10
2022-10-25T21:37:52.038Z,90.50
2022-10-25T21:41:19.755Z,90.60
2022-10-25T21:44:43.489Z,90.80
2022-10-25T21:48:08.274Z,91.00
2022-10-25T21:51:32.749Z,91.40
2022-10-25T21:54:57.997Z,91.60
2022-10-25T21:58:21.449Z,91.60
2022-10-25T22:01:45.058Z,92.10
2022-10-25T22:05:09.708Z,92.20
2022-10-25T22:08:33.234Z,92.30
2022-10-25T22:11:58.779Z,92.20
2022-10-25T22:15:22.425Z,92.10
2022-10-25T22:18:52.020Z,91.80
2022-10-25T22:22:15.520Z,91.40
2022-10-25T22:25:38.970Z,91.80
2022-10-25T22:29:05.154Z,92.40
2022-10-25T22:32:28.651Z,92.30
2022-10-25T22:35:52.257Z,92.80
2022-10-25T22:39:16.546Z,93.00
2022-10-25T22:42:40.182Z,93.10
2022-10-25T22:46:07.291Z,93.10
2022-10-25T22:49:30.840Z,92.80
2022-10-25T22:52:54.361Z,92.80
2022-10-25T22:56:21.107Z,92.40
2022-10-25T22:59:44.520Z,92.10
2022-10-25T23:03:09.342Z,92.10
2022-10-25T23:06:36.105Z,91.90
2022-10-25T23:09:59.597Z,92.00
2022-10-25T23:13:23.107Z,92.10
2022-10-25T23:16:46.963Z,91.60
2022-10-25T23:20:12.251Z,91.50
2022-10-25T23:23:39.096Z,91.20
2022-10-25T23:27:02.579Z,91.40
2022-10-25T23:30:28.279Z,91.50
2022-10-25T23:33:53.604Z,91.50
2022-10-25T23:37:18.393Z,91.50
2022-10-25T23:40:50.187Z,91.50
2022-10-25T23:44:14.984Z,91.50
2022-10-25T23:47:41.105Z,91.90
2022-10-25T23:51:08.682Z,91.60
2022-10-25T23:54:33.522Z,91.50
2022-10-25T23:57:58.612Z,91.40
